sensor_id;sensor_type;location;lat;lon;timestamp;temperature;humidity
19403;DHT22;9837;48.888;8.998;2023-03-26T00:00:03;10.90;72.90
19403;DHT22;9837;48.888;8.998;2023-03-26T00:02:30;10.60;73.60
19403;DHT22;9837;48.888;8.998;2023-03-26T00:04:55;10.60;74.10
19403;DHT22;9837;48.888;8.998;2023-03-26T00:09:47;10.90;72.10
19403;DHT22;9837;48.888;8.998;2023-03-26T00:14:38;10.90;72.10
19403;DHT22;9837;48.888;8.998;2023-03-26T00:17:05;11.10;71.60
19403;DHT22;9837;48.888;8.998;2023-03-26T00:21:56;11.00;71.20
19403;DHT22;9837;48.888;8.998;2023-03-26T00:24:22;11.20;70.60
19403;DHT22;9837;48.888;8.998;2023-03-26T00:26:53;11.20;70.30
19403;DHT22;9837;48.888;8.998;2023-03-26T00:29:19;11.20;70.40
19403;DHT22;9837;48.888;8.998;2023-03-26T00:31:44;11.10;70.70
19403;DHT22;9837;48.888;8.998;2023-03-26T00:34:10;11.20;70.30
19403;DHT22;9837;48.888;8.998;2023-03-26T00:36:36;11.40;69.60
19403;DHT22;9837;48.888;8.998;2023-03-26T00:39:02;11.50;69.00
19403;DHT22;9837;48.888;8.998;2023-03-26T00:41:30;11.50;68.80
19403;DHT22;9837;48.888;8.998;2023-03-26T00:43:58;11.50;68.80
19403;DHT22;9837;48.888;8.998;2023-03-26T00:46:25;11.50;68.70
19403;DHT22;9837;48.888;8.998;2023-03-26T00:48:50;11.30;68.80
19403;DHT22;9837;48.888;8.998;2023-03-26T00:51:17;11.20;69.50
19403;DHT22;9837;48.888;8.998;2023-03-26T00:53:45;11.20;69.70
19403;DHT22;9837;48.888;8.998;2023-03-26T00:56:11;11.10;69.40
19403;DHT22;9837;48.888;8.998;2023-03-26T00:58:37;11.00;69.60
19403;DHT22;9837;48.888;8.998;2023-03-26T01:01:06;10.80;70.10
19403;DHT22;9837;48.888;8.998;2023-03-26T01:03:34;10.70;70.90
19403;DHT22;9837;48.888;8.998;2023-03-26T01:06:07;11.10;70.00
19403;DHT22;9837;48.888;8.998;2023-03-26T01:08:42;11.10;69.30
19403;DHT22;9837;48.888;8.998;2023-03-26T01:11:16;11.20;69.10
19403;DHT22;9837;48.888;8.998;2023-03-26T01:13:48;11.10;69.10
19403;DHT22;9837;48.888;8.998;2023-03-26T01:16:39;11.20;69.50
19403;DHT22;9837;48.888;8.998;2023-03-26T01:19:06;11.20;69.00
19403;DHT22;9837;48.888;8.998;2023-03-26T01:21:35;11.10;68.70
19403;DHT22;9837;48.888;8.998;2023-03-26T01:24:05;10.90;70.00
19403;DHT22;9837;48.888;8.998;2023-03-26T01:26:37;11.10;69.00
19403;DHT22;9837;48.888;8.998;2023-03-26T01:29:17;11.00;68.80
19403;DHT22;9837;48.888;8.998;2023-03-26T01:32:03;11.00;69.10
19403;DHT22;9837;48.888;8.998;2023-03-26T01:37:27;11.10;68.10
19403;DHT22;9837;48.888;8.998;2023-03-26T01:39:58;10.90;69.60
19403;DHT22;9837;48.888;8.998;2023-03-26T01:42:36;10.60;70.30
19403;DHT22;9837;48.888;8.998;2023-03-26T01:47:33;10.20;72.00
19403;DHT22;9837;48.888;8.998;2023-03-26T01:50:00;10.50;71.00
19403;DHT22;9837;48.888;8.998;2023-03-26T01:52:26;10.50;70.90
19403;DHT22;9837;48.888;8.998;2023-03-26T01:54:55;10.40;71.10
19403;DHT22;9837;48.888;8.998;2023-03-26T02:00:17;10.30;71.20
19403;DHT22;9837;48.888;8.998;2023-03-26T02:05:37;10.40;72.60
19403;DHT22;9837;48.888;8.998;2023-03-26T02:08:36;10.00;72.60
19403;DHT22;9837;48.888;8.998;2023-03-26T02:11:13;10.00;72.40
19403;DHT22;9837;48.888;8.998;2023-03-26T02:13:44;10.00;72.30
19403;DHT22;9837;48.888;8.998;2023-03-26T02:16:13;10.00;72.40
19403;DHT22;9837;48.888;8.998;2023-03-26T02:18:39;10.10;72.40
19403;DHT22;9837;48.888;8.998;2023-03-26T02:21:11;10.00;72.30
19403;DHT22;9837;48.888;8.998;2023-03-26T02:23:42;9.80;73.30
19403;DHT22;9837;48.888;8.998;2023-03-26T02:26:12;9.80;74.10
19403;DHT22;9837;48.888;8.998;2023-03-26T02:28:38;10.00;74.20
19403;DHT22;9837;48.888;8.998;2023-03-26T02:31:04;10.00;73.60
19403;DHT22;9837;48.888;8.998;2023-03-26T02:33:30;10.00;74.30
19403;DHT22;9837;48.888;8.998;2023-03-26T02:35:58;9.50;75.50
19403;DHT22;9837;48.888;8.998;2023-03-26T02:38:29;9.50;76.20
19403;DHT22;9837;48.888;8.998;2023-03-26T02:40:59;9.50;76.90
19403;DHT22;9837;48.888;8.998;2023-03-26T02:43:25;9.80;75.00
19403;DHT22;9837;48.888;8.998;2023-03-26T02:45:50;10.00;74.30
19403;DHT22;9837;48.888;8.998;2023-03-26T02:48:16;10.10;75.00
19403;DHT22;9837;48.888;8.998;2023-03-26T02:50:42;9.90;74.90
19403;DHT22;9837;48.888;8.998;2023-03-26T02:53:08;9.60;76.10
19403;DHT22;9837;48.888;8.998;2023-03-26T02:55:34;9.60;77.20
19403;DHT22;9837;48.888;8.998;2023-03-26T02:57:59;9.50;76.80
19403;DHT22;9837;48.888;8.998;2023-03-26T03:00:25;9.60;76.80
19403;DHT22;9837;48.888;8.998;2023-03-26T03:02:51;9.70;77.60
19403;DHT22;9837;48.888;8.998;2023-03-26T03:05:18;10.00;74.80
19403;DHT22;9837;48.888;8.998;2023-03-26T03:07:44;10.00;75.50
19403;DHT22;9837;48.888;8.998;2023-03-26T03:10:12;9.90;75.40
19403;DHT22;9837;48.888;8.998;2023-03-26T03:12:39;9.90;75.30
19403;DHT22;9837;48.888;8.998;2023-03-26T03:15:05;10.10;74.90
19403;DHT22;9837;48.888;8.998;2023-03-26T03:17:31;10.10;75.60
19403;DHT22;9837;48.888;8.998;2023-03-26T03:19:57;9.80;76.20
19403;DHT22;9837;48.888;8.998;2023-03-26T03:22:22;9.60;76.80
19403;DHT22;9837;48.888;8.998;2023-03-26T03:24:47;10.00;74.90
19403;DHT22;9837;48.888;8.998;2023-03-26T03:27:13;10.40;73.80
19403;DHT22;9837;48.888;8.998;2023-03-26T03:29:39;10.50;72.20
19403;DHT22;9837;48.888;8.998;2023-03-26T03:32:05;10.40;73.20
19403;DHT22;9837;48.888;8.998;2023-03-26T03:34:31;10.30;73.30
19403;DHT22;9837;48.888;8.998;2023-03-26T03:36:56;10.20;73.60
19403;DHT22;9837;48.888;8.998;2023-03-26T03:39:22;10.20;74.20
19403;DHT22;9837;48.888;8.998;2023-03-26T03:41:47;10.20;74.00
19403;DHT22;9837;48.888;8.998;2023-03-26T03:44:13;10.10;74.60
19403;DHT22;9837;48.888;8.998;2023-03-26T03:46:39;10.10;74.30
19403;DHT22;9837;48.888;8.998;2023-03-26T03:49:05;10.20;74.60
19403;DHT22;9837;48.888;8.998;2023-03-26T03:51:30;10.20;74.00
19403;DHT22;9837;48.888;8.998;2023-03-26T03:53:56;10.30;74.00
19403;DHT22;9837;48.888;8.998;2023-03-26T03:56:21;10.50;73.70
19403;DHT22;9837;48.888;8.998;2023-03-26T03:58:48;10.60;73.00
19403;DHT22;9837;48.888;8.998;2023-03-26T04:01:14;10.70;72.30
19403;DHT22;9837;48.888;8.998;2023-03-26T04:03:41;10.60;72.60
19403;DHT22;9837;48.888;8.998;2023-03-26T04:06:11;10.30;73.40
19403;DHT22;9837;48.888;8.998;2023-03-26T04:08:37;10.10;74.50
19403;DHT22;9837;48.888;8.998;2023-03-26T04:11:03;10.20;74.60
19403;DHT22;9837;48.888;8.998;2023-03-26T04:13:29;10.10;74.50
19403;DHT22;9837;48.888;8.998;2023-03-26T04:15:55;10.20;74.30
19403;DHT22;9837;48.888;8.998;2023-03-26T04:18:21;10.20;74.40
19403;DHT22;9837;48.888;8.998;2023-03-26T04:20:46;10.20;74.30
19403;DHT22;9837;48.888;8.998;2023-03-26T04:23:14;10.10;75.10
19403;DHT22;9837;48.888;8.998;2023-03-26T04:25:49;10.20;74.50
19403;DHT22;9837;48.888;8.998;2023-03-26T04:28:31;10.60;73.30
19403;DHT22;9837;48.888;8.998;2023-03-26T04:30:58;10.50;72.90
19403;DHT22;9837;48.888;8.998;2023-03-26T04:33:30;10.20;74.40
19403;DHT22;9837;48.888;8.998;2023-03-26T04:35:56;10.00;75.50
19403;DHT22;9837;48.888;8.998;2023-03-26T04:38:28;10.20;74.90
19403;DHT22;9837;48.888;8.998;2023-03-26T04:43:24;10.70;73.20
19403;DHT22;9837;48.888;8.998;2023-03-26T04:45:50;11.20;71.60
19403;DHT22;9837;48.888;8.998;2023-03-26T04:48:16;11.50;70.10
19403;DHT22;9837;48.888;8.998;2023-03-26T04:50:43;11.40;70.20
19403;DHT22;9837;48.888;8.998;2023-03-26T04:53:15;11.40;70.40
19403;DHT22;9837;48.888;8.998;2023-03-26T04:58:16;11.00;71.20
19403;DHT22;9837;48.888;8.998;2023-03-26T05:00:42;10.60;73.20
19403;DHT22;9837;48.888;8.998;2023-03-26T05:03:11;10.60;73.00
19403;DHT22;9837;48.888;8.998;2023-03-26T05:05:37;10.30;74.60
19403;DHT22;9837;48.888;8.998;2023-03-26T05:08:03;10.20;74.50
19403;DHT22;9837;48.888;8.998;2023-03-26T05:10:28;9.90;75.80
19403;DHT22;9837;48.888;8.998;2023-03-26T05:12:54;10.20;75.20
19403;DHT22;9837;48.888;8.998;2023-03-26T05:15:20;9.90;75.30
19403;DHT22;9837;48.888;8.998;2023-03-26T05:17:45;9.90;75.50
19403;DHT22;9837;48.888;8.998;2023-03-26T05:20:24;9.80;75.50
19403;DHT22;9837;48.888;8.998;2023-03-26T05:22:50;10.20;74.60
19403;DHT22;9837;48.888;8.998;2023-03-26T05:25:17;10.10;74.50
19403;DHT22;9837;48.888;8.998;2023-03-26T05:27:43;10.20;75.10
19403;DHT22;9837;48.888;8.998;2023-03-26T05:30:09;10.50;73.40
19403;DHT22;9837;48.888;8.998;2023-03-26T05:32:37;11.00;71.60
19403;DHT22;9837;48.888;8.998;2023-03-26T05:35:03;11.40;70.10
19403;DHT22;9837;48.888;8.998;2023-03-26T05:37:29;11.60;68.70
19403;DHT22;9837;48.888;8.998;2023-03-26T05:39:55;11.40;68.30
19403;DHT22;9837;48.888;8.998;2023-03-26T05:42:21;11.50;68.80
19403;DHT22;9837;48.888;8.998;2023-03-26T05:44:47;11.70;68.10
19403;DHT22;9837;48.888;8.998;2023-03-26T05:47:13;11.70;67.80
19403;DHT22;9837;48.888;8.998;2023-03-26T05:49:38;11.70;68.10
19403;DHT22;9837;48.888;8.998;2023-03-26T05:52:04;11.70;68.90
19403;DHT22;9837;48.888;8.998;2023-03-26T05:54:29;11.50;68.30
19403;DHT22;9837;48.888;8.998;2023-03-26T05:56:55;11.30;68.90
19403;DHT22;9837;48.888;8.998;2023-03-26T05:59:21;11.10;68.70
19403;DHT22;9837;48.888;8.998;2023-03-26T06:01:47;11.10;69.50
19403;DHT22;9837;48.888;8.998;2023-03-26T06:04:17;10.60;70.00
19403;DHT22;9837;48.888;8.998;2023-03-26T06:06:43;11.00;69.00
19403;DHT22;9837;48.888;8.998;2023-03-26T06:09:09;11.10;68.50
19403;DHT22;9837;48.888;8.998;2023-03-26T06:11:38;11.30;67.60
19403;DHT22;9837;48.888;8.998;2023-03-26T06:14:04;11.50;67.30
19403;DHT22;9837;48.888;8.998;2023-03-26T06:16:29;11.50;68.00
19403;DHT22;9837;48.888;8.998;2023-03-26T06:18:55;11.50;66.60
19403;DHT22;9837;48.888;8.998;2023-03-26T06:21:20;11.60;66.60
19403;DHT22;9837;48.888;8.998;2023-03-26T06:23:46;11.60;67.20
19403;DHT22;9837;48.888;8.998;2023-03-26T06:26:13;11.70;66.80
19403;DHT22;9837;48.888;8.998;2023-03-26T06:28:39;11.70;66.40
19403;DHT22;9837;48.888;8.998;2023-03-26T06:33:31;11.80;65.40
19403;DHT22;9837;48.888;8.998;2023-03-26T06:35:57;11.70;65.30
19403;DHT22;9837;48.888;8.998;2023-03-26T06:38:23;11.60;65.70
19403;DHT22;9837;48.888;8.998;2023-03-26T06:40:49;11.60;65.70
19403;DHT22;9837;48.888;8.998;2023-03-26T06:43:14;11.60;64.90
19403;DHT22;9837;48.888;8.998;2023-03-26T06:45:40;11.40;65.50
19403;DHT22;9837;48.888;8.998;2023-03-26T06:48:05;11.20;66.00
19403;DHT22;9837;48.888;8.998;2023-03-26T06:50:31;10.90;66.50
19403;DHT22;9837;48.888;8.998;2023-03-26T06:52:57;10.50;67.90
19403;DHT22;9837;48.888;8.998;2023-03-26T06:55:23;10.70;69.10
19403;DHT22;9837;48.888;8.998;2023-03-26T06:57:50;10.80;65.80
19403;DHT22;9837;48.888;8.998;2023-03-26T07:00:16;11.30;63.60
19403;DHT22;9837;48.888;8.998;2023-03-26T07:02:42;11.60;62.30
19403;DHT22;9837;48.888;8.998;2023-03-26T07:05:07;11.90;61.60
19403;DHT22;9837;48.888;8.998;2023-03-26T07:07:33;12.40;59.50
19403;DHT22;9837;48.888;8.998;2023-03-26T07:09:59;12.60;59.80
19403;DHT22;9837;48.888;8.998;2023-03-26T07:12:25;12.90;59.40
19403;DHT22;9837;48.888;8.998;2023-03-26T07:14:51;12.90;58.10
19403;DHT22;9837;48.888;8.998;2023-03-26T07:17:17;12.80;58.80
19403;DHT22;9837;48.888;8.998;2023-03-26T07:19:43;12.70;59.20
19403;DHT22;9837;48.888;8.998;2023-03-26T07:22:20;12.80;60.00
19403;DHT22;9837;48.888;8.998;2023-03-26T07:24:46;12.80;60.50
19403;DHT22;9837;48.888;8.998;2023-03-26T07:29:58;12.80;61.10
19403;DHT22;9837;48.888;8.998;2023-03-26T07:41:36;12.70;63.70
19403;DHT22;9837;48.888;8.998;2023-03-26T07:44:32;12.70;64.10
19403;DHT22;9837;48.888;8.998;2023-03-26T07:47:04;12.70;63.70
19403;DHT22;9837;48.888;8.998;2023-03-26T07:49:35;12.50;63.90
19403;DHT22;9837;48.888;8.998;2023-03-26T07:52:02;12.40;64.70
19403;DHT22;9837;48.888;8.998;2023-03-26T07:54:28;12.40;65.30
19403;DHT22;9837;48.888;8.998;2023-03-26T07:57:07;12.40;65.50
19403;DHT22;9837;48.888;8.998;2023-03-26T08:00:00;12.40;66.00
19403;DHT22;9837;48.888;8.998;2023-03-26T08:05:35;12.10;67.70
19403;DHT22;9837;48.888;8.998;2023-03-26T08:08:18;12.00;68.20
19403;DHT22;9837;48.888;8.998;2023-03-26T08:16:36;11.80;70.50
19403;DHT22;9837;48.888;8.998;2023-03-26T08:21:54;11.70;70.60
19403;DHT22;9837;48.888;8.998;2023-03-26T08:27:37;11.50;72.30
19403;DHT22;9837;48.888;8.998;2023-03-26T08:30:23;11.50;72.60
19403;DHT22;9837;48.888;8.998;2023-03-26T08:32:58;11.40;73.10
19403;DHT22;9837;48.888;8.998;2023-03-26T08:35:25;11.40;73.60
19403;DHT22;9837;48.888;8.998;2023-03-26T08:37:51;11.30;73.90
19403;DHT22;9837;48.888;8.998;2023-03-26T08:40:38;11.30;73.80
19403;DHT22;9837;48.888;8.998;2023-03-26T08:49:01;11.40;75.40
19403;DHT22;9837;48.888;8.998;2023-03-26T08:52:07;11.80;74.50
19403;DHT22;9837;48.888;8.998;2023-03-26T09:06:34;12.50;73.20
19403;DHT22;9837;48.888;8.998;2023-03-26T09:09:03;11.50;75.80
19403;DHT22;9837;48.888;8.998;2023-03-26T09:25:38;13.50;72.20
19403;DHT22;9837;48.888;8.998;2023-03-26T09:28:44;13.20;71.30
19403;DHT22;9837;48.888;8.998;2023-03-26T09:31:28;12.90;74.70
19403;DHT22;9837;48.888;8.998;2023-03-26T09:34:23;13.70;74.40
19403;DHT22;9837;48.888;8.998;2023-03-26T09:37:02;14.10;70.10
19403;DHT22;9837;48.888;8.998;2023-03-26T09:42:23;14.30;69.10
19403;DHT22;9837;48.888;8.998;2023-03-26T09:45:15;14.50;66.80
19403;DHT22;9837;48.888;8.998;2023-03-26T09:53:39;14.70;66.20
19403;DHT22;9837;48.888;8.998;2023-03-26T09:58:47;14.20;67.90
19403;DHT22;9837;48.888;8.998;2023-03-26T10:01:24;14.30;68.40
19403;DHT22;9837;48.888;8.998;2023-03-26T10:03:57;14.50;67.50
19403;DHT22;9837;48.888;8.998;2023-03-26T10:09:36;15.30;65.40
19403;DHT22;9837;48.888;8.998;2023-03-26T10:17:36;17.20;62.00
19403;DHT22;9837;48.888;8.998;2023-03-26T10:20:34;17.80;60.00
19403;DHT22;9837;48.888;8.998;2023-03-26T10:26:22;18.20;57.10
19403;DHT22;9837;48.888;8.998;2023-03-26T10:29:25;17.80;55.10
19403;DHT22;9837;48.888;8.998;2023-03-26T10:32:21;17.80;53.40
19403;DHT22;9837;48.888;8.998;2023-03-26T10:37:56;17.30;53.50
19403;DHT22;9837;48.888;8.998;2023-03-26T10:43:40;17.10;52.00
19403;DHT22;9837;48.888;8.998;2023-03-26T10:46:23;17.30;53.10
19403;DHT22;9837;48.888;8.998;2023-03-26T10:49:09;17.30;51.70
19403;DHT22;9837;48.888;8.998;2023-03-26T10:51:49;17.40;52.80
19403;DHT22;9837;48.888;8.998;2023-03-26T10:54:34;17.70;51.90
19403;DHT22;9837;48.888;8.998;2023-03-26T10:59:45;18.10;50.00
19403;DHT22;9837;48.888;8.998;2023-03-26T11:02:20;18.00;48.70
19403;DHT22;9837;48.888;8.998;2023-03-26T11:05:10;17.30;49.10
19403;DHT22;9837;48.888;8.998;2023-03-26T11:16:25;18.20;47.60
19403;DHT22;9837;48.888;8.998;2023-03-26T11:19:12;18.50;47.60
19403;DHT22;9837;48.888;8.998;2023-03-26T11:24:37;18.70;46.30
19403;DHT22;9837;48.888;8.998;2023-03-26T11:32:41;17.10;51.40
19403;DHT22;9837;48.888;8.998;2023-03-26T11:35:19;16.40;53.60
19403;DHT22;9837;48.888;8.998;2023-03-26T11:37:50;16.20;56.80
19403;DHT22;9837;48.888;8.998;2023-03-26T11:40:28;16.30;58.40
19403;DHT22;9837;48.888;8.998;2023-03-26T11:43:00;16.80;59.50
19403;DHT22;9837;48.888;8.998;2023-03-26T11:45:29;16.80;60.00
19403;DHT22;9837;48.888;8.998;2023-03-26T11:48:24;17.20;59.10
19403;DHT22;9837;48.888;8.998;2023-03-26T11:50:54;17.20;56.40
19403;DHT22;9837;48.888;8.998;2023-03-26T11:53:27;17.20;56.50
19403;DHT22;9837;48.888;8.998;2023-03-26T11:56:10;16.90;56.50
19403;DHT22;9837;48.888;8.998;2023-03-26T11:58:56;16.00;57.30
19403;DHT22;9837;48.888;8.998;2023-03-26T12:01:28;15.50;59.70
19403;DHT22;9837;48.888;8.998;2023-03-26T12:04:04;15.70;61.20
19403;DHT22;9837;48.888;8.998;2023-03-26T12:06:31;16.10;58.30
19403;DHT22;9837;48.888;8.998;2023-03-26T12:11:26;17.00;56.70
19403;DHT22;9837;48.888;8.998;2023-03-26T12:13:58;17.30;56.30
19403;DHT22;9837;48.888;8.998;2023-03-26T12:16:24;17.60;55.10
19403;DHT22;9837;48.888;8.998;2023-03-26T12:19:17;17.40;54.30
19403;DHT22;9837;48.888;8.998;2023-03-26T12:21:48;17.00;54.40
19403;DHT22;9837;48.888;8.998;2023-03-26T12:24:26;17.00;54.70
19403;DHT22;9837;48.888;8.998;2023-03-26T12:27:05;16.40;53.70
19403;DHT22;9837;48.888;8.998;2023-03-26T12:29:58;16.20;54.00
19403;DHT22;9837;48.888;8.998;2023-03-26T12:32:28;16.10;56.30
19403;DHT22;9837;48.888;8.998;2023-03-26T12:34:56;16.40;53.40
19403;DHT22;9837;48.888;8.998;2023-03-26T12:37:37;16.70;53.60
19403;DHT22;9837;48.888;8.998;2023-03-26T12:40:26;17.10;51.30
19403;DHT22;9837;48.888;8.998;2023-03-26T12:42:58;17.40;50.20
19403;DHT22;9837;48.888;8.998;2023-03-26T12:45:38;17.50;49.10
19403;DHT22;9837;48.888;8.998;2023-03-26T12:48:05;17.60;49.80
19403;DHT22;9837;48.888;8.998;2023-03-26T12:51:08;17.60;47.90
19403;DHT22;9837;48.888;8.998;2023-03-26T12:56:10;17.50;47.30
19403;DHT22;9837;48.888;8.998;2023-03-26T12:59:00;17.70;48.10
19403;DHT22;9837;48.888;8.998;2023-03-26T13:07:24;18.10;45.90
19403;DHT22;9837;48.888;8.998;2023-03-26T13:15:29;17.50;46.10
19403;DHT22;9837;48.888;8.998;2023-03-26T13:18:41;16.60;48.10
19403;DHT22;9837;48.888;8.998;2023-03-26T13:21:34;15.80;54.80
19403;DHT22;9837;48.888;8.998;2023-03-26T13:26:52;16.90;51.90
19403;DHT22;9837;48.888;8.998;2023-03-26T13:29:38;16.70;52.20
19403;DHT22;9837;48.888;8.998;2023-03-26T13:38:13;17.60;48.60
19403;DHT22;9837;48.888;8.998;2023-03-26T13:43:20;18.10;48.50
19403;DHT22;9837;48.888;8.998;2023-03-26T13:49:00;18.20;47.30
19403;DHT22;9837;48.888;8.998;2023-03-26T13:51:48;18.00;48.10
19403;DHT22;9837;48.888;8.998;2023-03-26T13:54:31;18.20;48.90
19403;DHT22;9837;48.888;8.998;2023-03-26T14:00:15;18.30;47.70
19403;DHT22;9837;48.888;8.998;2023-03-26T14:02:48;18.30;48.20
19403;DHT22;9837;48.888;8.998;2023-03-26T14:05:33;18.20;47.40
19403;DHT22;9837;48.888;8.998;2023-03-26T14:08:03;18.10;47.30
19403;DHT22;9837;48.888;8.998;2023-03-26T14:10:34;17.90;48.20
19403;DHT22;9837;48.888;8.998;2023-03-26T14:13:20;17.50;48.40
19403;DHT22;9837;48.888;8.998;2023-03-26T14:15:58;17.50;48.60
19403;DHT22;9837;48.888;8.998;2023-03-26T14:18:37;17.50;49.00
19403;DHT22;9837;48.888;8.998;2023-03-26T14:23:41;17.50;47.80
19403;DHT22;9837;48.888;8.998;2023-03-26T14:35:19;17.50;49.30
19403;DHT22;9837;48.888;8.998;2023-03-26T14:40:55;16.70;50.50
19403;DHT22;9837;48.888;8.998;2023-03-26T14:48:56;16.10;49.80
19403;DHT22;9837;48.888;8.998;2023-03-26T14:51:32;16.00;50.90
19403;DHT22;9837;48.888;8.998;2023-03-26T14:54:10;14.50;56.40
19403;DHT22;9837;48.888;8.998;2023-03-26T14:56:41;13.70;59.30
19403;DHT22;9837;48.888;8.998;2023-03-26T15:07:50;12.60;64.70
19403;DHT22;9837;48.888;8.998;2023-03-26T15:18:56;12.00;69.10
19403;DHT22;9837;48.888;8.998;2023-03-26T15:38:24;12.20;67.20
19403;DHT22;9837;48.888;8.998;2023-03-26T15:43:18;12.30;66.60
19403;DHT22;9837;48.888;8.998;2023-03-26T15:49:23;12.50;65.90
19403;DHT22;9837;48.888;8.998;2023-03-26T15:52:04;12.60;65.70
19403;DHT22;9837;48.888;8.998;2023-03-26T15:54:52;12.80;65.40
19403;DHT22;9837;48.888;8.998;2023-03-26T15:57:39;13.00;65.70
19403;DHT22;9837;48.888;8.998;2023-03-26T16:06:09;13.00;63.10
19403;DHT22;9837;48.888;8.998;2023-03-26T16:14:08;13.20;62.70
19403;DHT22;9837;48.888;8.998;2023-03-26T16:16:53;13.10;62.00
19403;DHT22;9837;48.888;8.998;2023-03-26T16:22:00;13.00;62.30
19403;DHT22;9837;48.888;8.998;2023-03-26T16:24:29;12.90;62.70
19403;DHT22;9837;48.888;8.998;2023-03-26T16:27:04;12.80;63.40
19403;DHT22;9837;48.888;8.998;2023-03-26T16:29:33;12.70;62.50
19403;DHT22;9837;48.888;8.998;2023-03-26T16:32:35;12.60;63.90
19403;DHT22;9837;48.888;8.998;2023-03-26T16:35:36;12.30;64.00
19403;DHT22;9837;48.888;8.998;2023-03-26T16:40:55;12.30;64.80
19403;DHT22;9837;48.888;8.998;2023-03-26T16:43:40;12.40;63.90
19403;DHT22;9837;48.888;8.998;2023-03-26T16:46:28;12.50;63.80
19403;DHT22;9837;48.888;8.998;2023-03-26T16:52:01;12.50;63.40
19403;DHT22;9837;48.888;8.998;2023-03-26T17:00:30;12.20;64.40
19403;DHT22;9837;48.888;8.998;2023-03-26T17:03:30;12.30;63.80
19403;DHT22;9837;48.888;8.998;2023-03-26T17:09:05;12.20;63.40
19403;DHT22;9837;48.888;8.998;2023-03-26T17:11:55;12.10;64.10
19403;DHT22;9837;48.888;8.998;2023-03-26T17:23:01;12.30;63.60
19403;DHT22;9837;48.888;8.998;2023-03-26T17:26:15;12.40;62.60
19403;DHT22;9837;48.888;8.998;2023-03-26T17:31:51;12.60;62.10
19403;DHT22;9837;48.888;8.998;2023-03-26T17:45:00;12.10;62.80
19403;DHT22;9837;48.888;8.998;2023-03-26T17:50:00;12.00;62.60
19403;DHT22;9837;48.888;8.998;2023-03-26T17:55:15;11.60;64.40
19403;DHT22;9837;48.888;8.998;2023-03-26T17:57:44;11.40;64.50
19403;DHT22;9837;48.888;8.998;2023-03-26T18:00:54;11.50;65.40
19403;DHT22;9837;48.888;8.998;2023-03-26T18:03:20;11.30;66.30
19403;DHT22;9837;48.888;8.998;2023-03-26T18:05:56;11.40;65.00
19403;DHT22;9837;48.888;8.998;2023-03-26T18:08:55;11.40;64.90
19403;DHT22;9837;48.888;8.998;2023-03-26T18:14:26;11.60;64.00
19403;DHT22;9837;48.888;8.998;2023-03-26T18:16:58;11.80;63.60
19403;DHT22;9837;48.888;8.998;2023-03-26T18:19:25;11.60;63.80
19403;DHT22;9837;48.888;8.998;2023-03-26T18:21:56;11.70;63.80
19403;DHT22;9837;48.888;8.998;2023-03-26T18:26:57;11.70;63.50
19403;DHT22;9837;48.888;8.998;2023-03-26T18:29:31;11.60;63.70
19403;DHT22;9837;48.888;8.998;2023-03-26T18:32:22;11.40;64.30
19403;DHT22;9837;48.888;8.998;2023-03-26T18:34:53;11.20;65.30
19403;DHT22;9837;48.888;8.998;2023-03-26T18:37:23;11.20;65.40
19403;DHT22;9837;48.888;8.998;2023-03-26T18:40:15;11.20;65.40
19403;DHT22;9837;48.888;8.998;2023-03-26T18:42:49;11.50;64.80
19403;DHT22;9837;48.888;8.998;2023-03-26T18:45:27;11.40;64.90
19403;DHT22;9837;48.888;8.998;2023-03-26T18:48:04;11.30;65.00
19403;DHT22;9837;48.888;8.998;2023-03-26T18:50:43;11.20;65.70
19403;DHT22;9837;48.888;8.998;2023-03-26T18:53:20;10.90;65.70
19403;DHT22;9837;48.888;8.998;2023-03-26T18:55:48;10.80;65.60
19403;DHT22;9837;48.888;8.998;2023-03-26T19:00:53;10.50;67.10
19403;DHT22;9837;48.888;8.998;2023-03-26T19:03:21;10.60;66.90
19403;DHT22;9837;48.888;8.998;2023-03-26T19:05:52;10.60;66.60
19403;DHT22;9837;48.888;8.998;2023-03-26T19:08:19;10.60;67.00
19403;DHT22;9837;48.888;8.998;2023-03-26T19:15:45;11.00;64.70
19403;DHT22;9837;48.888;8.998;2023-03-26T19:18:22;11.00;67.00
19403;DHT22;9837;48.888;8.998;2023-03-26T19:20:54;11.20;64.60
19403;DHT22;9837;48.888;8.998;2023-03-26T19:23:29;11.50;63.80
19403;DHT22;9837;48.888;8.998;2023-03-26T19:25:58;11.40;63.30
19403;DHT22;9837;48.888;8.998;2023-03-26T19:28:32;11.40;63.00
19403;DHT22;9837;48.888;8.998;2023-03-26T19:31:08;11.00;64.10
19403;DHT22;9837;48.888;8.998;2023-03-26T19:33:36;10.80;64.90
19403;DHT22;9837;48.888;8.998;2023-03-26T19:38:42;10.90;64.20
19403;DHT22;9837;48.888;8.998;2023-03-26T19:41:24;10.90;64.40
19403;DHT22;9837;48.888;8.998;2023-03-26T19:43:55;10.80;64.90
19403;DHT22;9837;48.888;8.998;2023-03-26T19:46:23;10.90;64.50
19403;DHT22;9837;48.888;8.998;2023-03-26T19:48:54;10.90;64.20
19403;DHT22;9837;48.888;8.998;2023-03-26T19:51:34;10.90;64.50
19403;DHT22;9837;48.888;8.998;2023-03-26T19:54:13;10.90;64.10
19403;DHT22;9837;48.888;8.998;2023-03-26T19:56:40;10.70;64.90
19403;DHT22;9837;48.888;8.998;2023-03-26T19:59:06;10.70;65.00
19403;DHT22;9837;48.888;8.998;2023-03-26T20:01:32;10.70;64.60
19403;DHT22;9837;48.888;8.998;2023-03-26T20:04:00;10.80;64.30
19403;DHT22;9837;48.888;8.998;2023-03-26T20:06:27;10.90;63.80
19403;DHT22;9837;48.888;8.998;2023-03-26T20:08:58;11.00;63.50
19403;DHT22;9837;48.888;8.998;2023-03-26T20:11:33;10.80;63.70
19403;DHT22;9837;48.888;8.998;2023-03-26T20:14:01;10.90;63.80
19403;DHT22;9837;48.888;8.998;2023-03-26T20:16:31;10.90;63.50
19403;DHT22;9837;48.888;8.998;2023-03-26T20:18:58;11.00;63.40
19403;DHT22;9837;48.888;8.998;2023-03-26T20:21:27;10.90;63.30
19403;DHT22;9837;48.888;8.998;2023-03-26T20:23:53;10.80;63.50
19403;DHT22;9837;48.888;8.998;2023-03-26T20:26:19;10.60;64.30
19403;DHT22;9837;48.888;8.998;2023-03-26T20:28:46;10.40;64.70
19403;DHT22;9837;48.888;8.998;2023-03-26T20:31:17;10.40;65.10
19403;DHT22;9837;48.888;8.998;2023-03-26T20:33:44;10.50;64.80
19403;DHT22;9837;48.888;8.998;2023-03-26T20:36:11;10.70;64.50
19403;DHT22;9837;48.888;8.998;2023-03-26T20:38:38;10.70;64.40
19403;DHT22;9837;48.888;8.998;2023-03-26T20:41:04;10.60;64.70
19403;DHT22;9837;48.888;8.998;2023-03-26T20:43:30;10.60;65.20
19403;DHT22;9837;48.888;8.998;2023-03-26T20:45:56;10.70;65.20
19403;DHT22;9837;48.888;8.998;2023-03-26T20:48:23;10.70;65.30
19403;DHT22;9837;48.888;8.998;2023-03-26T20:50:51;10.80;65.20
19403;DHT22;9837;48.888;8.998;2023-03-26T20:53:17;10.90;65.90
19403;DHT22;9837;48.888;8.998;2023-03-26T20:55:43;11.00;64.70
19403;DHT22;9837;48.888;8.998;2023-03-26T20:58:15;10.90;65.20
19403;DHT22;9837;48.888;8.998;2023-03-26T21:00:45;10.90;65.30
19403;DHT22;9837;48.888;8.998;2023-03-26T21:03:12;11.00;65.00
19403;DHT22;9837;48.888;8.998;2023-03-26T21:05:38;11.00;65.10
19403;DHT22;9837;48.888;8.998;2023-03-26T21:08:05;11.20;65.10
19403;DHT22;9837;48.888;8.998;2023-03-26T21:10:31;11.20;65.10
19403;DHT22;9837;48.888;8.998;2023-03-26T21:15:52;11.20;65.60
19403;DHT22;9837;48.888;8.998;2023-03-26T21:18:18;11.20;65.80
19403;DHT22;9837;48.888;8.998;2023-03-26T21:20:44;11.40;65.70